sensor_id;sensor_type;location;lat;lon;timestamp;P1;P2;P0
57798;PMS7003;43626;53.866;30.298;2023-06-22T00:01:52;45;35.8;23.8
57798;PMS7003;43626;53.866;30.298;2023-06-22T00:06:52;43.6;34.8;22.8
57798;PMS7003;43626;53.866;30.298;2023-06-22T00:12:42;45;35;23.4
57798;PMS7003;43626;53.866;30.298;2023-06-22T00:17:42;46.6;35.8;22.8
57798;PMS7003;43626;53.866;30.298;2023-06-22T00:22:30;46.6;36.6;23.2
57798;PMS7003;43626;53.866;30.298;2023-06-22T00:27:42;43.4;34.8;23.6
57798;PMS7003;43626;53.866;30.298;2023-06-22T00:32:30;41.4;34.2;23
57798;PMS7003;43626;53.866;30.298;2023-06-22T00:37:10;42.2;34.6;23.4
57798;PMS7003;43626;53.866;30.298;2023-06-22T00:42:28;45.4;36.6;24.2
57798;PMS7003;43626;53.866;30.298;2023-06-22T00:47:42;50.6;38.8;25
57798;PMS7003;43626;53.866;30.298;2023-06-22T00:52:22;44;35.8;23
57798;PMS7003;43626;53.866;30.298;2023-06-22T00:57:02;47;38.2;25
57798;PMS7003;43626;53.866;30.298;2023-06-22T01:02:42;46.2;36.4;24.4
57798;PMS7003;43626;53.866;30.298;2023-06-22T01:07:01;43;35;23.4
57798;PMS7003;43626;53.866;30.298;2023-06-22T01:12:01;46.8;36;23.8
57798;PMS7003;43626;53.866;30.298;2023-06-22T01:17:06;46.8;38;24.6
57798;PMS7003;43626;53.866;30.298;2023-06-22T01:22:24;47.2;36.6;24.2
57798;PMS7003;43626;53.866;30.298;2023-06-22T01:27:28;45;36.8;23.8
57798;PMS7003;43626;53.866;30.298;2023-06-22T01:32:30;45.2;36;23.6
57798;PMS7003;43626;53.866;30.298;2023-06-22T01:37:20;48;37.4;24.2
57798;PMS7003;43626;53.866;30.298;2023-06-22T01:42:22;42.2;34;22.2
57798;PMS7003;43626;53.866;30.298;2023-06-22T01:46:52;43.2;34.8;23.8
57798;PMS7003;43626;53.866;30.298;2023-06-22T01:52:12;45.3;36.8;24.3
57798;PMS7003;43626;53.866;30.298;2023-06-22T01:57:14;44.6;36;23.4
57798;PMS7003;43626;53.866;30.298;2023-06-22T02:02:45;45;36.4;24
57798;PMS7003;43626;53.866;30.298;2023-06-22T02:07:45;44.8;35.4;23
57798;PMS7003;43626;53.866;30.298;2023-06-22T02:12:22;43.4;34.8;22.8
57798;PMS7003;43626;53.866;30.298;2023-06-22T02:16:52;42.6;35;22.4
57798;PMS7003;43626;53.866;30.298;2023-06-22T02:21:54;44.6;35.8;23.4
57798;PMS7003;43626;53.866;30.298;2023-06-22T02:27:22;40.4;34;22.2
57798;PMS7003;43626;53.866;30.298;2023-06-22T02:32:12;41.6;34;22.4
57798;PMS7003;43626;53.866;30.298;2023-06-22T02:37:22;41.6;33.6;22.6
57798;PMS7003;43626;53.866;30.298;2023-06-22T02:42:44;41.8;34.2;23
57798;PMS7003;43626;53.866;30.298;2023-06-22T02:47:02;43;36;23.6
57798;PMS7003;43626;53.866;30.298;2023-06-22T02:51:52;43;34.8;22.8
57798;PMS7003;43626;53.866;30.298;2023-06-22T02:57:44;46.8;36.8;24.6
57798;PMS7003;43626;53.866;30.298;2023-06-22T03:02:32;43.2;35.8;23.6
57798;PMS7003;43626;53.866;30.298;2023-06-22T03:07:14;36.4;31.4;21.4
57798;PMS7003;43626;53.866;30.298;2023-06-22T03:12:22;44.2;35.6;22.6
57798;PMS7003;43626;53.866;30.298;2023-06-22T03:17:12;41.8;34.4;22.6
57798;PMS7003;43626;53.866;30.298;2023-06-22T03:22:02;43;35.6;23.2
57798;PMS7003;43626;53.866;30.298;2023-06-22T03:27:04;45.6;37.2;24.6
57798;PMS7003;43626;53.866;30.298;2023-06-22T03:32:44;49.2;38.8;25
57798;PMS7003;43626;53.866;30.298;2023-06-22T03:37:34;48.8;39.2;25.4
57798;PMS7003;43626;53.866;30.298;2023-06-22T03:42:14;49.6;39.8;25.8
57798;PMS7003;43626;53.866;30.298;2023-06-22T03:47:20;53.8;42.6;26.6
57798;PMS7003;43626;53.866;30.298;2023-06-22T03:52:42;60.8;46.3;29.3
57798;PMS7003;43626;53.866;30.298;2023-06-22T03:57:02;59.4;47.8;30.8
57798;PMS7003;43626;53.866;30.298;2023-06-22T04:02:32;61.2;47.2;29.6
57798;PMS7003;43626;53.866;30.298;2023-06-22T04:07:22;63;48;31
57798;PMS7003;43626;53.866;30.298;2023-06-22T04:12:34;63.2;49;30.8
57798;PMS7003;43626;53.866;30.298;2023-06-22T04:17:42;62.2;47.8;31
57798;PMS7003;43626;53.866;30.298;2023-06-22T04:21:52;62;48.6;31
57798;PMS7003;43626;53.866;30.298;2023-06-22T04:27:02;61.4;48.2;30.4
57798;PMS7003;43626;53.866;30.298;2023-06-22T04:31:52;64;48.8;31.2
57798;PMS7003;43626;53.866;30.298;2023-06-22T04:37:42;64.4;50;32.2
57798;PMS7003;43626;53.866;30.298;2023-06-22T04:42:30;63.8;49;31
57798;PMS7003;43626;53.866;30.298;2023-06-22T04:47:34;60.4;47.4;30
57798;PMS7003;43626;53.866;30.298;2023-06-22T04:52:44;58.8;45.8;29
57798;PMS7003;43626;53.866;30.298;2023-06-22T04:57:30;57.4;44.6;28.6
57798;PMS7003;43626;53.866;30.298;2023-06-22T05:01:52;54;42.2;26.8
57798;PMS7003;43626;53.866;30.298;2023-06-22T05:07:00;49.6;40.8;26.2
57798;PMS7003;43626;53.866;30.298;2023-06-22T05:12:42;50.4;40.4;26.4
57798;PMS7003;43626;53.866;30.298;2023-06-22T05:17:42;50.2;39.6;26
57798;PMS7003;43626;53.866;30.298;2023-06-22T05:22:42;48.4;39;25.4
57798;PMS7003;43626;53.866;30.298;2023-06-22T05:27:42;46.8;37.4;23.6
57798;PMS7003;43626;53.866;30.298;2023-06-22T05:32:30;48.4;37.2;24.2
57798;PMS7003;43626;53.866;30.298;2023-06-22T05:37:02;47.6;36.6;23.8
57798;PMS7003;43626;53.866;30.298;2023-06-22T05:42:28;45.8;36.8;23.4
57798;PMS7003;43626;53.866;30.298;2023-06-22T05:47:40;45.6;37;23.6
57798;PMS7003;43626;53.866;30.298;2023-06-22T05:52:24;46.6;37.2;24.2
57798;PMS7003;43626;53.866;30.298;2023-06-22T05:57:14;45.8;37.5;24.5
57798;PMS7003;43626;53.866;30.298;2023-06-22T06:02:42;43.6;35.8;23
57798;PMS7003;43626;53.866;30.298;2023-06-22T06:07:04;45.2;37;23.8
57798;PMS7003;43626;53.866;30.298;2023-06-22T06:12:12;45.8;36.8;22.4
57798;PMS7003;43626;53.866;30.298;2023-06-22T06:17:10;44;36.4;23.2
57798;PMS7003;43626;53.866;30.298;2023-06-22T06:22:24;44;35.8;22
57798;PMS7003;43626;53.866;30.298;2023-06-22T06:27:24;40.8;32.4;21.2
57798;PMS7003;43626;53.866;30.298;2023-06-22T06:32:40;37.8;31.2;20.2
57798;PMS7003;43626;53.866;30.298;2023-06-22T06:36:52;36.4;30.4;20
57798;PMS7003;43626;53.866;30.298;2023-06-22T06:42:12;34;28.8;19.4
57798;PMS7003;43626;53.866;30.298;2023-06-22T06:46:52;35.2;30.6;19.8
57798;PMS7003;43626;53.866;30.298;2023-06-22T06:51:52;38.2;31.4;20.8
57798;PMS7003;43626;53.866;30.298;2023-06-22T06:57:12;34;29.8;20
57798;PMS7003;43626;53.866;30.298;2023-06-22T07:02:22;28.4;26.6;17.8
57798;PMS7003;43626;53.866;30.298;2023-06-22T07:07:40;30.4;26.8;17
57798;PMS7003;43626;53.866;30.298;2023-06-22T07:12:18;29.6;27.4;17.4
57798;PMS7003;43626;53.866;30.298;2023-06-22T07:17:08;28;26;17.4
57798;PMS7003;43626;53.866;30.298;2023-06-22T07:22:20;29.4;25.6;17.2
57798;PMS7003;43626;53.866;30.298;2023-06-22T07:27:10;28;23.4;15.4
57798;PMS7003;43626;53.866;30.298;2023-06-22T07:32:12;24.6;23;14.6
57798;PMS7003;43626;53.866;30.298;2023-06-22T07:37:18;27.2;24.2;15.4
57798;PMS7003;43626;53.866;30.298;2023-06-22T07:42:30;26;21.4;14.2
57798;PMS7003;43626;53.866;30.298;2023-06-22T07:46:52;22;20.6;13.6
57798;PMS7003;43626;53.866;30.298;2023-06-22T07:52:18;20.4;19.4;12.6
57798;PMS7003;43626;53.866;30.298;2023-06-22T07:57:42;23.3;19.3;13.5
57798;PMS7003;43626;53.866;30.298;2023-06-22T08:02:30;24;22.4;14.4
57798;PMS7003;43626;53.866;30.298;2023-06-22T08:07:12;24.8;21.6;14
57798;PMS7003;43626;53.866;30.298;2023-06-22T08:12:20;22;20.2;12.4
57798;PMS7003;43626;53.866;30.298;2023-06-22T08:17:43;23.8;21.4;13.4
57798;PMS7003;43626;53.866;30.298;2023-06-22T08:22:02;23;21;13.6
57798;PMS7003;43626;53.866;30.298;2023-06-22T08:27:10;22.4;19.6;13
57798;PMS7003;43626;53.866;30.298;2023-06-22T08:32:28;24.4;20.4;13.8
57798;PMS7003;43626;53.866;30.298;2023-06-22T08:37:30;22;20.2;13.6
57798;PMS7003;43626;53.866;30.298;2023-06-22T08:42:44;25;21.2;13.4
57798;PMS7003;43626;53.866;30.298;2023-06-22T08:47:20;24.2;22.4;14
57798;PMS7003;43626;53.866;30.298;2023-06-22T08:51:52;22;19.4;12.2
57798;PMS7003;43626;53.866;30.298;2023-06-22T08:56:52;20.3;17.8;13.3
57798;PMS7003;43626;53.866;30.298;2023-06-22T09:02:40;23.6;22;14.6
57798;PMS7003;43626;53.866;30.298;2023-06-22T09:07:28;22.2;20.8;13.8
57798;PMS7003;43626;53.866;30.298;2023-06-22T09:12:34;23.2;20.8;13.8
57798;PMS7003;43626;53.866;30.298;2023-06-22T09:17:42;24.4;22;14.4
57798;PMS7003;43626;53.866;30.298;2023-06-22T09:22:30;23.4;21.2;13.4
57798;PMS7003;43626;53.866;30.298;2023-06-22T09:27:02;22.2;20;13.4
57798;PMS7003;43626;53.866;30.298;2023-06-22T09:32:04;24.2;21.4;14.2
57798;PMS7003;43626;53.866;30.298;2023-06-22T09:37:42;23.2;21;13.6
57798;PMS7003;43626;53.866;30.298;2023-06-22T09:42:42;24.4;20.2;13.6
57798;PMS7003;43626;53.866;30.298;2023-06-22T09:47:42;24.6;21.6;14.2
57798;PMS7003;43626;53.866;30.298;2023-06-22T09:52:42;21.2;18.4;12.4
57798;PMS7003;43626;53.866;30.298;2023-06-22T09:57:30;21;18.3;12.3
57798;PMS7003;43626;53.866;30.298;2023-06-22T10:01:52;19.4;17.4;12.2
57798;PMS7003;43626;53.866;30.298;2023-06-22T10:07:30;21.2;18.4;11.8
57798;PMS7003;43626;53.866;30.298;2023-06-22T10:12:45;20;18.2;11.8
57798;PMS7003;43626;53.866;30.298;2023-06-22T10:17:20;22;20.2;13.4
57798;PMS7003;43626;53.866;30.298;2023-06-22T10:22:43;23;21.4;13.8
57798;PMS7003;43626;53.866;30.298;2023-06-22T10:27:40;20.6;19;12
57798;PMS7003;43626;53.866;30.298;2023-06-22T10:32:16;22.8;20.4;13.4
57798;PMS7003;43626;53.866;30.298;2023-06-22T10:37:12;22.8;19.4;13
57798;PMS7003;43626;53.866;30.298;2023-06-22T10:42:00;18.2;16.2;11.2
57798;PMS7003;43626;53.866;30.298;2023-06-22T10:47:26;20.4;17;10.6
57798;PMS7003;43626;53.866;30.298;2023-06-22T10:52:24;19.2;17.4;11.8
57798;PMS7003;43626;53.866;30.298;2023-06-22T10:57:30;22;18.8;12.6
57798;PMS7003;43626;53.866;30.298;2023-06-22T11:02:02;21;19.3;12
57798;PMS7003;43626;53.866;30.298;2023-06-22T11:06:52;20.4;18.6;12.6
57798;PMS7003;43626;53.866;30.298;2023-06-22T11:12:00;22.2;18.2;12
57798;PMS7003;43626;53.866;30.298;2023-06-22T11:16:52;21.6;20.6;13.2
57798;PMS7003;43626;53.866;30.298;2023-06-22T11:22:04;23.4;21.2;13.8
57798;PMS7003;43626;53.866;30.298;2023-06-22T11:27:24;22.2;20;14.2
57798;PMS7003;43626;53.866;30.298;2023-06-22T11:32:40;27.6;23.4;15.8
57798;PMS7003;43626;53.866;30.298;2023-06-22T11:37:18;20.4;19;12.4
57798;PMS7003;43626;53.866;30.298;2023-06-22T11:41:53;19.4;17.8;12
57798;PMS7003;43626;53.866;30.298;2023-06-22T11:47:42;20.2;18;12.4
57798;PMS7003;43626;53.866;30.298;2023-06-22T11:52:10;23.4;20.2;12.8
57798;PMS7003;43626;53.866;30.298;2023-06-22T11:57:14;22.4;20.8;13.6
57798;PMS7003;43626;53.866;30.298;2023-06-22T12:02:18;23.8;20.3;12.8
57798;PMS7003;43626;53.866;30.298;2023-06-22T12:07:30;23.4;19.6;13.4
57798;PMS7003;43626;53.866;30.298;2023-06-22T12:11:52;21.4;18.8;12.2
57798;PMS7003;43626;53.866;30.298;2023-06-22T12:17:00;23.4;20;12.4
57798;PMS7003;43626;53.866;30.298;2023-06-22T12:22:40;22;18.6;12.4
57798;PMS7003;43626;53.866;30.298;2023-06-22T12:27:30;21;19;13.8
57798;PMS7003;43626;53.866;30.298;2023-06-22T12:32:12;22.4;20.2;13.6
57798;PMS7003;43626;53.866;30.298;2023-06-22T12:37:08;21;18.6;12.8
57798;PMS7003;43626;53.866;30.298;2023-06-22T12:42:44;23.2;20.8;13.6
57798;PMS7003;43626;53.866;30.298;2023-06-22T12:46:52;23.2;20.4;14.2
57798;PMS7003;43626;53.866;30.298;2023-06-22T12:52:08;24.2;21.8;14.6
57798;PMS7003;43626;53.866;30.298;2023-06-22T12:57:20;26.6;23;14
57798;PMS7003;43626;53.866;30.298;2023-06-22T13:02:32;22.3;21.8;14.8
57798;PMS7003;43626;53.866;30.298;2023-06-22T13:07:44;22.2;20.4;13.6
57798;PMS7003;43626;53.866;30.298;2023-06-22T13:12:34;26.8;24;14.8
57798;PMS7003;43626;53.866;30.298;2023-06-22T13:16:52;24.6;22.4;15.2
57798;PMS7003;43626;53.866;30.298;2023-06-22T13:21:52;26.4;23;15
57798;PMS7003;43626;53.866;30.298;2023-06-22T13:27:22;25.2;23.2;15.2
57798;PMS7003;43626;53.866;30.298;2023-06-22T13:32:30;29.4;25;16.4
57798;PMS7003;43626;53.866;30.298;2023-06-22T13:37:34;35.4;31;19.2
57798;PMS7003;43626;53.866;30.298;2023-06-22T13:42:44;25.6;24.4;16.2
57798;PMS7003;43626;53.866;30.298;2023-06-22T13:47:28;23.4;22.6;15.4
57798;PMS7003;43626;53.866;30.298;2023-06-22T13:52:00;24.8;23;15.4
57798;PMS7003;43626;53.866;30.298;2023-06-22T13:57:00;26;24;16.6
57798;PMS7003;43626;53.866;30.298;2023-06-22T14:02:44;26.8;22.8;14.5
57798;PMS7003;43626;53.866;30.298;2023-06-22T14:07:40;24.4;20.6;13.4
57798;PMS7003;43626;53.866;30.298;2023-06-22T14:12:40;24.8;21.8;13.2
57798;PMS7003;43626;53.866;30.298;2023-06-22T14:17:32;23;19.8;12.8
57798;PMS7003;43626;53.866;30.298;2023-06-22T14:22:28;20;18.8;12
57798;PMS7003;43626;53.866;30.298;2023-06-22T14:27:24;22.4;20.6;13
57798;PMS7003;43626;53.866;30.298;2023-06-22T14:32:10;23.6;19.8;12.8
57798;PMS7003;43626;53.866;30.298;2023-06-22T14:37:44;21.6;18.6;12.2
57798;PMS7003;43626;53.866;30.298;2023-06-22T14:42:24;25;20.2;12.6
57798;PMS7003;43626;53.866;30.298;2023-06-22T14:47:12;24.2;21;13.6
57798;PMS7003;43626;53.866;30.298;2023-06-22T14:52:44;23.6;21.6;13.8
57798;PMS7003;43626;53.866;30.298;2023-06-22T14:57:02;25.6;23.2;15.4
57798;PMS7003;43626;53.866;30.298;2023-06-22T15:02:00;24.6;21.4;14.6
57798;PMS7003;43626;53.866;30.298;2023-06-22T15:06:52;25.5;23.3;14.5
57798;PMS7003;43626;53.866;30.298;2023-06-22T15:12:24;26;22.8;15.2
57798;PMS7003;43626;53.866;30.298;2023-06-22T15:17:24;26.2;22.8;13.8
57798;PMS7003;43626;53.866;30.298;2023-06-22T15:22:28;28.2;25;16.6
57798;PMS7003;43626;53.866;30.298;2023-06-22T15:27:44;23.6;21.6;15
57798;PMS7003;43626;53.866;30.298;2023-06-22T15:32:00;23.8;21.6;14.2
57798;PMS7003;43626;53.866;30.298;2023-06-22T15:37:00;27.4;24.2;15
57798;PMS7003;43626;53.866;30.298;2023-06-22T15:41:52;24.4;22;13.8
57798;PMS7003;43626;53.866;30.298;2023-06-22T15:47:12;23.8;21;14.2
57798;PMS7003;43626;53.866;30.298;2023-06-22T15:52:42;23.8;21.4;13.6
57798;PMS7003;43626;53.866;30.298;2023-06-22T15:57:44;29;25;15.6
57798;PMS7003;43626;53.866;30.298;2023-06-22T16:02:18;30.8;27.8;17.8
57798;PMS7003;43626;53.866;30.298;2023-06-22T16:07:02;29.5;25.3;17.5
57798;PMS7003;43626;53.866;30.298;2023-06-22T16:11:55;27.8;25.4;16.2
57798;PMS7003;43626;53.866;30.298;2023-06-22T16:17:10;28.4;25.2;17
57798;PMS7003;43626;53.866;30.298;2023-06-22T16:22:02;30.8;26.6;17
57798;PMS7003;43626;53.866;30.298;2023-06-22T16:27:30;45.8;38.2;25.6
57798;PMS7003;43626;53.866;30.298;2023-06-22T16:32:52;53.2;43.4;29.6
57798;PMS7003;43626;53.866;30.298;2023-06-22T16:37:00;55.4;43.2;29
57798;PMS7003;43626;53.866;30.298;2023-06-22T16:41:52;52.8;43.4;29
57798;PMS7003;43626;53.866;30.298;2023-06-22T16:47:45;37.4;31.2;19.8
57798;PMS7003;43626;53.866;30.298;2023-06-22T16:52:34;22.4;20;12.2
57798;PMS7003;43626;53.866;30.298;2023-06-22T16:57:14;35.4;30;19.6
57798;PMS7003;43626;53.866;30.298;2023-06-22T17:02:00;44.2;36.6;23.2
57798;PMS7003;43626;53.866;30.298;2023-06-22T17:07:45;44.3;37;25
57798;PMS7003;43626;53.866;30.298;2023-06-22T17:12:13;53.6;42.4;27.8
57798;PMS7003;43626;53.866;30.298;2023-06-22T17:17:17;34.4;28.6;19
57798;PMS7003;43626;53.866;30.298;2023-06-22T17:22:28;68.6;54.8;34.6
57798;PMS7003;43626;53.866;30.298;2023-06-22T17:27:33;85.4;73.4;46.8
57798;PMS7003;43626;53.866;30.298;2023-06-22T17:32:45;44.2;36.6;24
57798;PMS7003;43626;53.866;30.298;2023-06-22T17:36:52;50.6;41;26.2
57798;PMS7003;43626;53.866;30.298;2023-06-22T17:42:10;40;33.2;21.4
57798;PMS7003;43626;53.866;30.298;2023-06-22T17:47:00;36.8;29.6;17.6
57798;PMS7003;43626;53.866;30.298;2023-06-22T17:52:48;26.4;24.8;16.4
57798;PMS7003;43626;53.866;30.298;2023-06-22T17:57:34;28;26;16.2
57798;PMS7003;43626;53.866;30.298;2023-06-22T18:02:14;31;26.6;17
57798;PMS7003;43626;53.866;30.298;2023-06-22T18:07:40;28.5;24.3;15
57798;PMS7003;43626;53.866;30.298;2023-06-22T18:12:31;32.6;28.8;17.6
57798;PMS7003;43626;53.866;30.298;2023-06-22T18:17:10;29;25;17
57798;PMS7003;43626;53.866;30.298;2023-06-22T18:22:13;29.6;26.2;17.4
57798;PMS7003;43626;53.866;30.298;2023-06-22T18:27:41;33;27.6;18.2
57798;PMS7003;43626;53.866;30.298;2023-06-22T18:32:41;33.4;29.4;19.2
57798;PMS7003;43626;53.866;30.298;2023-06-22T18:37:41;31;27;17.8
57798;PMS7003;43626;53.866;30.298;2023-06-22T18:42:43;35;29.8;18.8
57798;PMS7003;43626;53.866;30.298;2023-06-22T18:47:29;34;29.6;18.4
57798;PMS7003;43626;53.866;30.298;2023-06-22T18:52:41;35;29.8;19
57798;PMS7003;43626;53.866;30.298;2023-06-22T18:57:29;35.4;30.2;18.8
57798;PMS7003;43626;53.866;30.298;2023-06-22T19:02:42;34;27.8;17.4
57798;PMS7003;43626;53.866;30.298;2023-06-22T19:07:21;31.5;27.8;17.5
57798;PMS7003;43626;53.866;30.298;2023-06-22T19:12:16;30.6;27;17.2
57798;PMS7003;43626;53.866;30.298;2023-06-22T19:17:41;35.8;29.2;18
57798;PMS7003;43626;53.866;30.298;2023-06-22T19:21:57;34.8;29.8;18.2
57798;PMS7003;43626;53.866;30.298;2023-06-22T19:27:01;34;29.4;18.6
57798;PMS7003;43626;53.866;30.298;2023-06-22T19:31:53;37.6;30.6;19
57798;PMS7003;43626;53.866;30.298;2023-06-22T19:37:23;35;30;18.8
57798;PMS7003;43626;53.866;30.298;2023-06-22T19:42:23;38.8;31.4;20.6
57798;PMS7003;43626;53.866;30.298;2023-06-22T19:47:29;36.4;30.2;19.4
57798;PMS7003;43626;53.866;30.298;2023-06-22T19:52:19;39;31.8;20.2
57798;PMS7003;43626;53.866;30.298;2023-06-22T19:57:01;35;29.8;18.8
57798;PMS7003;43626;53.866;30.298;2023-06-22T20:01:53;38.2;30.6;19.2
57798;PMS7003;43626;53.866;30.298;2023-06-22T20:07:33;36.5;30.8;19.5
57798;PMS7003;43626;53.866;30.298;2023-06-22T20:12:21;34.4;29.4;18.8
57798;PMS7003;43626;53.866;30.298;2023-06-22T20:17:15;36.2;30;19
57798;PMS7003;43626;53.866;30.298;2023-06-22T20:22:41;37.8;30;19.2
57798;PMS7003;43626;53.866;30.298;2023-06-22T20:27:19;37;30.8;19.2
57798;PMS7003;43626;53.866;30.298;2023-06-22T20:32:08;35.6;30;19.4
57798;PMS7003;43626;53.866;30.298;2023-06-22T20:37:14;35.8;30;18.4
57798;PMS7003;43626;53.866;30.298;2023-06-22T20:42:09;37.2;31.2;18.4
57798;PMS7003;43626;53.866;30.298;2023-06-22T20:47:13;45.2;35.6;22.4
57798;PMS7003;43626;53.866;30.298;2023-06-22T20:52:01;54.8;42.2;26.2
57798;PMS7003;43626;53.866;30.298;2023-06-22T20:57:31;43.2;35.2;22
57798;PMS7003;43626;53.866;30.298;2023-06-22T21:02:09;37.2;30.2;18.8
57798;PMS7003;43626;53.866;30.298;2023-06-22T21:07:19;37.6;30.8;19.4
57798;PMS7003;43626;53.866;30.298;2023-06-22T21:12:43;32.3;28.5;18.8
57798;PMS7003;43626;53.866;30.298;2023-06-22T21:17:33;37.8;31.8;20
57798;PMS7003;43626;53.866;30.298;2023-06-22T21:21:53;38.6;32.2;20.4
57798;PMS7003;43626;53.866;30.298;2023-06-22T21:27:19;41.8;32.4;20.2
57798;PMS7003;43626;53.866;30.298;2023-06-22T21:32:43;38.8;31.6;19.4
57798;PMS7003;43626;53.866;30.298;2023-06-22T21:36:53;37.2;30.8;19.4
57798;PMS7003;43626;53.866;30.298;2023-06-22T21:41:59;36.6;30.6;18.6
57798;PMS7003;43626;53.866;30.298;2023-06-22T21:47:21;37.6;32;19.6
57798;PMS7003;43626;53.866;30.298;2023-06-22T21:52:33;43;33.4;20.6
57798;PMS7003;43626;53.866;30.298;2023-06-22T21:57:43;40.8;33;20.4
57798;PMS7003;43626;53.866;30.298;2023-06-22T22:01:51;39.6;32.4;20.2
57798;PMS7003;43626;53.866;30.298;2023-06-22T22:07:19;40.4;32.4;20.6
57798;PMS7003;43626;53.866;30.298;2023-06-22T22:12:01;38;31.3;19.5
57798;PMS7003;43626;53.866;30.298;2023-06-22T22:17:43;37.6;31.2;19.4
57798;PMS7003;43626;53.866;30.298;2023-06-22T22:22:27;41.4;31.4;19.8
57798;PMS7003;43626;53.866;30.298;2023-06-22T22:27:31;39.8;32.2;19
57798;PMS7003;43626;53.866;30.298;2023-06-22T22:32:41;39;32.4;19.4
57798;PMS7003;43626;53.866;30.298;2023-06-22T22:37:41;39.4;32;19.6
57798;PMS7003;43626;53.866;30.298;2023-06-22T22:42:43;35.8;31;19.4
57798;PMS7003;43626;53.866;30.298;2023-06-22T22:47:01;35.8;30.4;18.6
57798;PMS7003;43626;53.866;30.298;2023-06-22T22:52:43;38.4;31.6;19.4
57798;PMS7003;43626;53.866;30.298;2023-06-22T22:57:43;37.4;30.8;19.6
57798;PMS7003;43626;53.866;30.298;2023-06-22T23:02:43;35.8;30.8;19
57798;PMS7003;43626;53.866;30.298;2023-06-22T23:07:33;40.4;32.2;20
57798;PMS7003;43626;53.866;30.298;2023-06-22T23:12:27;39;32;20
57798;PMS7003;43626;53.866;30.298;2023-06-22T23:17:09;40;31.6;19.6
57798;PMS7003;43626;53.866;30.298;2023-06-22T23:22:29;38.8;31.8;20.2
57798;PMS7003;43626;53.866;30.298;2023-06-22T23:27:41;43;32.6;20.2
57798;PMS7003;43626;53.866;30.298;2023-06-22T23:32:03;39.4;31.8;20.2
57798;PMS7003;43626;53.866;30.298;2023-06-22T23:37:01;40.2;32.6;20.2
57798;PMS7003;43626;53.866;30.298;2023-06-22T23:42:41;39.6;32;20.4
57798;PMS7003;43626;53.866;30.298;2023-06-22T23:47:13;41.8;33.4;20.6
57798;PMS7003;43626;53.866;30.298;2023-06-22T23:52:09;37.8;31.6;19.6
57798;PMS7003;43626;53.866;30.298;2023-06-22T23:56:53;38.8;31.4;19.4
